createdAt,value
2022-08-17T00:00:43.929Z,22.55
2022-08-17T00:01:27.943Z,18.42
2022-08-17T00:02:25.571Z,19.25
2022-08-17T00:03:03.156Z,18.73
2022-08-17T00:03:40.188Z,19.65
2022-08-17T00:04:13.499Z,19.27
2022-08-17T00:04:51.322Z,20.40
2022-08-17T00:05:27.765Z,21.60
2022-08-17T00:06:03.897Z,17.80
2022-08-17T00:06:39.553Z,21.10
2022-08-17T00:07:14.676Z,16.35
2022-08-17T00:07:49.292Z,20.98
2022-08-17T00:08:26.290Z,19.60
2022-08-17T00:09:00.884Z,21.10
2022-08-17T00:09:35.493Z,19.23
2022-08-17T00:10:12.807Z,20.55
2022-08-17T00:10:51.808Z,18.70
2022-08-17T00:11:31.029Z,19.98
2022-08-17T00:12:41.041Z,20.98
2022-08-17T00:13:00.226Z,22.13
2022-08-17T00:13:37.202Z,21.40
2022-08-17T00:14:13.240Z,18.75
2022-08-17T00:14:47.939Z,19.20
2022-08-17T00:15:24.345Z,19.02
2022-08-17T00:16:00.779Z,24.05
2022-08-17T00:16:55.611Z,19.10
2022-08-17T00:17:31.985Z,17.75
2022-08-17T00:19:06.566Z,19.33
2022-08-17T00:19:08.388Z,21.17
2022-08-17T00:19:43.070Z,20.25
2022-08-17T00:20:18.492Z,24.10
2022-08-17T00:22:28.683Z,22.90
2022-08-17T00:22:34.181Z,20.48
2022-08-17T00:23:11.776Z,19.90
2022-08-17T00:23:49.362Z,20.90
2022-08-17T00:24:25.551Z,18.88
2022-08-17T00:24:59.370Z,17.85
2022-08-17T00:25:34.493Z,21.90
2022-08-17T00:26:08.833Z,17.17
2022-08-17T00:26:46.253Z,19.48
2022-08-17T00:27:19.945Z,21.65
2022-08-17T00:27:54.561Z,17.50
2022-08-17T00:28:33.525Z,21.52
2022-08-17T00:29:07.847Z,16.63
2022-08-17T00:29:42.953Z,20.88
2022-08-17T00:30:17.490Z,20.73
2022-08-17T00:30:55.115Z,18.88
2022-08-17T00:31:29.035Z,20.80
2022-08-17T00:33:23.149Z,18.02
2022-08-17T00:33:23.406Z,17.95
2022-08-17T00:33:54.839Z,19.38
2022-08-17T00:34:30.711Z,16.17
2022-08-17T00:35:08.357Z,22.20
2022-08-17T00:35:42.043Z,17.67
2022-08-17T00:36:17.488Z,18.30
2022-08-17T00:36:52.588Z,16.02
2022-08-17T00:37:25.938Z,17.88
2022-08-17T00:38:00.660Z,20.52
2022-08-17T00:38:35.202Z,21.95
2022-08-17T00:39:09.376Z,18.50
2022-08-17T00:39:44.101Z,18.63
2022-08-17T00:40:19.238Z,17.05
2022-08-17T00:40:59.263Z,20.50
2022-08-17T00:41:35.893Z,19.80
2022-08-17T00:42:15.844Z,21.50
2022-08-17T00:42:49.889Z,18.23
2022-08-17T00:43:28.155Z,19.95
2022-08-17T00:44:03.446Z,18.27
2022-08-17T00:44:37.604Z,17.90
2022-08-17T00:45:13.678Z,19.25
2022-08-17T00:45:46.998Z,17.90
2022-08-17T00:46:22.952Z,18.30
2022-08-17T00:46:57.867Z,19.60
2022-08-17T00:47:31.309Z,16.52
2022-08-17T00:48:05.708Z,15.95
2022-08-17T00:49:00.756Z,16.50
2022-08-17T00:49:35.813Z,21.45
2022-08-17T00:50:11.117Z,18.25
2022-08-17T00:50:47.856Z,17.88
2022-08-17T00:51:27.379Z,20.48
2022-08-17T00:52:11.650Z,16.25
2022-08-17T00:52:54.386Z,18.90
2022-08-17T00:53:30.391Z,16.95
2022-08-17T00:54:08.135Z,21.48
2022-08-17T00:54:44.895Z,16.17
2022-08-17T00:55:18.830Z,19.00
2022-08-17T00:55:54.065Z,18.08
2022-08-17T00:56:32.694Z,18.85
2022-08-17T00:57:08.944Z,18.40
2022-08-17T00:57:47.092Z,19.33
2022-08-17T00:58:36.182Z,18.30
2022-08-17T00:59:11.862Z,12.73
2022-08-17T00:59:56.052Z,18.75
2022-08-17T01:00:40.130Z,17.75
2022-08-17T01:01:21.496Z,16.25
2022-08-17T01:01:57.090Z,16.80
2022-08-17T01:02:34.990Z,18.10
2022-08-17T01:03:21.109Z,18.55
2022-08-17T01:03:55.662Z,16.73
2022-08-17T01:04:33.666Z,20.00
2022-08-17T01:05:09.909Z,15.73
2022-08-17T01:05:44.310Z,18.17
2022-08-17T01:06:19.458Z,17.70
2022-08-17T01:06:56.794Z,21.08
2022-08-17T01:07:30.964Z,18.55
2022-08-17T01:08:07.747Z,23.17
2022-08-17T01:08:43.647Z,16.63
2022-08-17T01:09:19.442Z,18.80
2022-08-17T01:09:53.182Z,16.83
2022-08-17T01:10:58.345Z,18.83
2022-08-17T01:11:27.796Z,21.15
2022-08-17T01:12:03.031Z,19.30
2022-08-17T01:12:37.842Z,22.63
2022-08-17T01:13:14.574Z,21.52
2022-08-17T01:13:50.390Z,20.20
2022-08-17T01:14:25.594Z,23.20
2022-08-17T01:15:00.151Z,17.25
2022-08-17T01:15:37.018Z,18.23
2022-08-17T01:16:17.401Z,19.95
2022-08-17T01:17:28.003Z,17.33
2022-08-17T01:18:04.187Z,21.98
2022-08-17T01:18:39.442Z,23.33
2022-08-17T01:19:17.132Z,20.23
2022-08-17T01:19:52.885Z,21.00
2022-08-17T01:20:27.219Z,20.80
2022-08-17T01:21:05.390Z,21.77
2022-08-17T01:21:44.917Z,18.40
2022-08-17T01:22:24.316Z,22.42
2022-08-17T01:23:33.932Z,20.27
2022-08-17T01:24:08.957Z,20.23
2022-08-17T01:24:44.145Z,19.75
2022-08-17T01:25:19.670Z,16.25
2022-08-17T01:25:54.875Z,17.33
2022-08-17T01:26:29.724Z,17.65
2022-08-17T01:27:10.463Z,25.10
2022-08-17T01:27:45.580Z,17.30
2022-08-17T01:28:52.799Z,17.33
2022-08-17T01:29:14.864Z,15.63
2022-08-17T01:29:52.147Z,21.70
2022-08-17T01:30:58.018Z,17.27
2022-08-17T01:31:20.339Z,18.45
2022-08-17T01:31:55.157Z,19.25
2022-08-17T01:32:31.588Z,15.70
2022-08-17T01:33:06.267Z,15.20
2022-08-17T01:33:41.327Z,15.55
2022-08-17T01:34:17.148Z,20.27
2022-08-17T01:34:51.075Z,17.48
2022-08-17T01:35:27.021Z,16.52
2022-08-17T01:36:02.350Z,17.95
2022-08-17T01:36:37.245Z,17.20
2022-08-17T01:37:12.591Z,19.13
2022-08-17T01:37:50.145Z,17.55
2022-08-17T01:38:27.168Z,14.55
2022-08-17T01:39:02.126Z,17.27
2022-08-17T01:39:38.634Z,17.58
2022-08-17T01:40:15.740Z,16.27
2022-08-17T01:40:57.695Z,15.80
2022-08-17T01:41:34.326Z,15.57
2022-08-17T01:42:10.455Z,17.20
2022-08-17T01:42:50.050Z,14.25
2022-08-17T01:43:28.015Z,15.95
2022-08-17T01:44:02.926Z,17.77
2022-08-17T01:44:37.364Z,15.20
2022-08-17T01:45:17.682Z,14.52
2022-08-17T01:46:02.748Z,12.10
2022-08-17T01:46:39.546Z,16.05
2022-08-17T01:47:14.245Z,17.27
2022-08-17T01:47:48.183Z,15.80
2022-08-17T01:48:24.076Z,13.73
2022-08-17T01:48:58.717Z,17.88
2022-08-17T01:49:33.200Z,15.23
2022-08-17T01:50:10.228Z,18.13
2022-08-17T01:50:45.238Z,18.13
2022-08-17T01:51:21.241Z,15.85
2022-08-17T01:51:56.233Z,14.57
2022-08-17T01:52:30.710Z,13.52
2022-08-17T01:53:07.652Z,16.15
2022-08-17T01:53:44.304Z,17.00
2022-08-17T01:54:21.127Z,18.92
2022-08-17T01:54:57.397Z,19.15
2022-08-17T01:55:35.248Z,13.32
2022-08-17T01:56:11.648Z,14.63
2022-08-17T01:56:49.525Z,13.10
2022-08-17T01:57:25.851Z,17.23
2022-08-17T01:57:59.331Z,16.30
2022-08-17T01:58:37.569Z,16.50
2022-08-17T01:59:12.819Z,15.82
2022-08-17T01:59:47.040Z,18.00
2022-08-17T02:00:25.660Z,18.83
2022-08-17T02:01:02.679Z,14.93
2022-08-17T02:01:38.032Z,18.63
2022-08-17T02:02:13.158Z,13.63
2022-08-17T02:03:06.533Z,22.05
2022-08-17T02:03:40.726Z,13.48
2022-08-17T02:04:29.013Z,19.08
2022-08-17T02:05:03.805Z,16.40
2022-08-17T02:05:38.359Z,13.77
2022-08-17T02:06:27.540Z,15.10
2022-08-17T02:07:02.504Z,18.15
2022-08-17T02:08:00.036Z,15.02
2022-08-17T02:08:38.953Z,16.45
2022-08-17T02:09:32.391Z,19.08
2022-08-17T02:10:06.029Z,29.65
2022-08-17T02:10:55.607Z,33.85
2022-08-17T02:11:31.154Z,23.50
2022-08-17T02:12:38.497Z,19.40
2022-08-17T02:13:02.452Z,18.35
2022-08-17T02:13:35.883Z,16.23
2022-08-17T02:14:10.945Z,25.38
2022-08-17T02:14:45.158Z,17.08
2022-08-17T02:15:23.677Z,17.00
2022-08-17T02:15:58.728Z,15.93
2022-08-17T02:16:37.585Z,15.40
2022-08-17T02:17:12.555Z,16.10
2022-08-17T02:17:46.745Z,15.95
2022-08-17T02:18:30.648Z,15.13
2022-08-17T02:19:05.076Z,18.42
2022-08-17T02:19:38.726Z,14.50
2022-08-17T02:20:14.895Z,21.80
2022-08-17T02:21:08.799Z,15.70
2022-08-17T02:21:44.597Z,22.67
2022-08-17T02:22:19.832Z,13.88
2022-08-17T02:22:53.657Z,13.93
2022-08-17T02:23:28.129Z,14.65
2022-08-17T02:24:05.965Z,13.38
2022-08-17T02:25:00.385Z,17.20
2022-08-17T02:25:40.703Z,19.75
2022-08-17T02:26:25.753Z,15.95
2022-08-17T02:27:01.701Z,15.38
2022-08-17T02:27:37.329Z,27.58
2022-08-17T02:28:11.780Z,27.85
2022-08-17T02:28:45.710Z,19.73
2022-08-17T02:29:20.656Z,18.52
2022-08-17T02:29:53.809Z,17.13
2022-08-17T02:31:00.836Z,14.25
2022-08-17T02:31:24.025Z,19.42
2022-08-17T02:31:59.245Z,20.70
2022-08-17T02:32:34.511Z,17.67
2022-08-17T02:33:09.697Z,19.92
2022-08-17T02:33:44.333Z,14.80
2022-08-17T02:34:18.243Z,15.35
2022-08-17T02:34:55.385Z,19.88
2022-08-17T02:35:30.354Z,22.20
2022-08-17T02:36:04.148Z,17.92
2022-08-17T02:36:39.855Z,18.00
2022-08-17T02:37:13.974Z,21.40
2022-08-17T02:37:48.943Z,19.77
2022-08-17T02:38:32.199Z,22.35
2022-08-17T02:39:09.118Z,19.98
2022-08-17T02:39:44.609Z,21.42
2022-08-17T02:40:35.062Z,21.60
2022-08-17T02:41:10.459Z,24.25
2022-08-17T02:41:46.064Z,18.05
2022-08-17T02:42:20.339Z,21.75
2022-08-17T02:42:54.916Z,19.73
2022-08-17T02:43:32.903Z,24.73
2022-08-17T02:44:07.700Z,18.63
2022-08-17T02:44:41.324Z,18.08
2022-08-17T02:45:18.081Z,21.33
2022-08-17T02:45:52.621Z,18.08
2022-08-17T02:46:26.074Z,19.08
2022-08-17T02:46:59.448Z,16.73
2022-08-17T02:47:35.223Z,21.95
2022-08-17T02:48:09.835Z,17.67
2022-08-17T02:48:44.091Z,20.10
2022-08-17T02:49:19.509Z,18.10
2022-08-17T02:49:55.878Z,19.52
2022-08-17T02:50:30.129Z,17.23
2022-08-17T02:51:06.107Z,20.42
2022-08-17T02:51:40.806Z,23.75
2022-08-17T02:52:15.164Z,20.40
2022-08-17T02:53:01.980Z,17.65
2022-08-17T02:53:36.666Z,18.30
2022-08-17T02:54:40.210Z,15.60
2022-08-17T02:55:09.843Z,16.38
2022-08-17T02:55:45.285Z,19.85
2022-08-17T02:56:20.610Z,18.75
2022-08-17T02:56:55.358Z,20.27
2022-08-17T02:57:30.305Z,18.67
2022-08-17T02:58:06.453Z,17.23
2022-08-17T02:58:41.574Z,16.90
2022-08-17T02:59:16.062Z,19.35
2022-08-17T02:59:52.412Z,20.05
2022-08-17T03:00:29.852Z,15.45
2022-08-17T03:01:04.944Z,31.85
2022-08-17T03:01:39.031Z,25.45
2022-08-17T03:02:14.850Z,19.70
2022-08-17T03:02:49.622Z,24.75
2022-08-17T03:03:24.206Z,20.98
2022-08-17T03:03:58.708Z,17.48
2022-08-17T03:04:35.123Z,17.75
2022-08-17T03:05:11.321Z,26.90
2022-08-17T03:05:45.687Z,17.20
2022-08-17T03:06:21.574Z,20.08
2022-08-17T03:06:55.473Z,21.05
2022-08-17T03:07:32.798Z,22.55
2022-08-17T03:08:10.470Z,18.00
2022-08-17T03:08:46.742Z,19.98
2022-08-17T03:09:23.760Z,22.35
2022-08-17T03:10:00.783Z,20.60
2022-08-17T03:10:34.882Z,21.52
2022-08-17T03:11:11.088Z,21.92
2022-08-17T03:11:45.825Z,19.10
2022-08-17T03:12:21.275Z,21.63
2022-08-17T03:12:57.002Z,23.25
2022-08-17T03:13:30.996Z,21.35
2022-08-17T03:14:05.005Z,25.13
2022-08-17T03:14:41.890Z,22.92
2022-08-17T03:15:17.745Z,18.65
2022-08-17T03:15:51.552Z,27.40
2022-08-17T03:16:27.142Z,20.25
2022-08-17T03:17:02.370Z,17.63
2022-08-17T03:17:36.605Z,20.83
2022-08-17T03:18:18.991Z,21.92
2022-08-17T03:19:00.903Z,19.98
2022-08-17T03:19:35.355Z,19.38
2022-08-17T03:20:14.652Z,21.48
2022-08-17T03:20:50.252Z,23.30
2022-08-17T03:21:27.768Z,21.67
2022-08-17T03:22:01.393Z,20.02
2022-08-17T03:23:01.739Z,21.13
2022-08-17T03:23:41.321Z,23.70
2022-08-17T03:24:16.557Z,25.17
2022-08-17T03:24:53.177Z,24.10
2022-08-17T03:25:29.515Z,22.13
2022-08-17T03:26:04.895Z,26.65
2022-08-17T03:26:46.859Z,25.17
2022-08-17T03:27:19.911Z,27.08
2022-08-17T03:27:56.277Z,28.90
2022-08-17T03:28:33.983Z,24.08
2022-08-17T03:29:08.164Z,23.65
2022-08-17T03:29:43.767Z,22.33
2022-08-17T03:30:17.971Z,29.80
2022-08-17T03:30:56.868Z,23.40
2022-08-17T03:31:32.442Z,26.00
2022-08-17T03:32:13.544Z,31.20
2022-08-17T03:32:48.632Z,27.05
2022-08-17T03:33:22.608Z,27.67
2022-08-17T03:33:59.232Z,29.80
2022-08-17T03:34:34.651Z,24.27
2022-08-17T03:35:08.845Z,30.42
2022-08-17T03:35:43.883Z,33.83
2022-08-17T03:36:18.611Z,28.70
2022-08-17T03:36:52.460Z,29.73
2022-08-17T03:37:26.482Z,31.58
2022-08-17T03:38:01.443Z,28.40
2022-08-17T03:38:39.430Z,33.03
2022-08-17T03:39:13.804Z,33.95
2022-08-17T03:39:49.202Z,28.52
2022-08-17T03:40:34.487Z,25.80
2022-08-17T03:41:18.451Z,26.27
2022-08-17T03:41:53.973Z,30.98
2022-08-17T03:42:32.053Z,29.17
2022-08-17T03:43:10.109Z,27.73
2022-08-17T03:43:44.652Z,31.77
2022-08-17T03:44:20.583Z,31.52
2022-08-17T03:44:57.751Z,26.63
2022-08-17T03:45:49.262Z,27.58
2022-08-17T03:46:59.732Z,31.77
2022-08-17T03:47:50.815Z,27.27
2022-08-17T03:48:43.817Z,30.15
2022-08-17T03:49:35.893Z,25.10
2022-08-17T03:50:30.301Z,27.33
2022-08-17T03:51:22.396Z,29.75
2022-08-17T03:52:15.330Z,26.02
2022-08-17T03:53:08.561Z,30.83
2022-08-17T03:54:07.778Z,78.43
2022-08-17T03:55:00.347Z,53.85
2022-08-17T03:55:54.938Z,32.50
2022-08-17T03:56:45.298Z,35.13
2022-08-17T03:57:20.064Z,32.40
2022-08-17T03:57:56.280Z,31.45
2022-08-17T03:58:30.594Z,34.80
2022-08-17T03:59:05.460Z,42.88
2022-08-17T03:59:41.108Z,39.08
2022-08-17T04:00:19.691Z,28.08
2022-08-17T04:00:57.784Z,31.35
2022-08-17T04:01:34.227Z,36.72
2022-08-17T04:02:10.135Z,37.65
2022-08-17T04:02:45.296Z,35.67
2022-08-17T04:03:21.087Z,33.22
2022-08-17T04:03:55.494Z,30.00
2022-08-17T04:04:30.517Z,32.80
2022-08-17T04:05:06.009Z,34.78
2022-08-17T04:05:39.839Z,29.17
2022-08-17T04:06:15.018Z,32.40
2022-08-17T04:06:50.258Z,32.72
2022-08-17T04:07:26.325Z,35.00
2022-08-17T04:07:59.976Z,34.83
2022-08-17T04:08:35.631Z,34.67
2022-08-17T04:09:10.489Z,37.72
2022-08-17T04:09:45.037Z,34.15
2022-08-17T04:10:18.896Z,30.10
2022-08-17T04:10:54.793Z,29.58
2022-08-17T04:11:29.901Z,31.95
2022-08-17T04:12:04.923Z,32.67
2022-08-17T04:12:46.035Z,36.15
2022-08-17T04:13:24.225Z,36.78
2022-08-17T04:14:00.643Z,36.97
2022-08-17T04:14:52.076Z,34.83
2022-08-17T04:15:27.737Z,34.65
2022-08-17T04:16:03.389Z,35.03
2022-08-17T04:16:38.775Z,32.25
2022-08-17T04:17:13.203Z,34.72
2022-08-17T04:17:48.891Z,33.53
2022-08-17T04:18:23.547Z,43.38
2022-08-17T04:18:58.794Z,35.17
2022-08-17T04:19:34.093Z,35.03
2022-08-17T04:20:08.406Z,38.85
2022-08-17T04:20:42.583Z,41.88
2022-08-17T04:21:19.124Z,36.03
2022-08-17T04:21:53.448Z,39.92
2022-08-17T04:22:30.601Z,34.75
2022-08-17T04:23:10.119Z,34.92
2022-08-17T04:23:45.342Z,35.38
2022-08-17T04:24:21.616Z,35.58
2022-08-17T04:24:56.525Z,40.85
2022-08-17T04:25:33.715Z,42.53
2022-08-17T04:26:10.667Z,35.28
2022-08-17T04:27:04.918Z,41.25
2022-08-17T04:27:39.764Z,39.58
2022-08-17T04:28:15.946Z,39.50
2022-08-17T04:28:51.028Z,40.03
2022-08-17T04:29:27.407Z,37.00
2022-08-17T04:30:21.717Z,41.70
2022-08-17T04:30:57.328Z,41.13
2022-08-17T04:31:33.962Z,39.33
2022-08-17T04:32:08.396Z,39.70
2022-08-17T04:33:04.943Z,43.55
2022-08-17T04:33:43.247Z,44.03
2022-08-17T04:34:19.666Z,41.30
2022-08-17T04:34:54.330Z,40.15
2022-08-17T04:35:29.854Z,41.67
2022-08-17T04:36:09.140Z,44.80
2022-08-17T04:36:47.992Z,46.08
2022-08-17T04:37:24.854Z,40.05
2022-08-17T04:38:00.166Z,36.92
2022-08-17T04:38:34.993Z,42.35
2022-08-17T04:39:08.703Z,46.75
2022-08-17T04:40:04.741Z,34.88
2022-08-17T04:40:56.498Z,35.95
2022-08-17T04:41:50.803Z,44.25
2022-08-17T04:42:25.397Z,46.88
2022-08-17T04:43:03.838Z,41.72
2022-08-17T04:43:39.485Z,40.28
2022-08-17T04:44:15.267Z,51.72
2022-08-17T04:45:10.764Z,38.22
2022-08-17T04:45:51.202Z,42.22
2022-08-17T04:46:33.521Z,42.53
2022-08-17T04:47:08.674Z,43.17
2022-08-17T04:47:46.938Z,48.90
2022-08-17T04:48:21.555Z,43.67
2022-08-17T04:48:59.281Z,44.08
2022-08-17T04:49:34.109Z,49.30
2022-08-17T04:50:08.730Z,105.68
2022-08-17T04:50:46.029Z,79.88
2022-08-17T04:51:21.940Z,92.82
2022-08-17T04:51:59.078Z,49.25
2022-08-17T04:52:46.700Z,41.95
2022-08-17T04:53:22.704Z,54.25
2022-08-17T04:53:59.546Z,51.75
2022-08-17T04:54:33.934Z,49.85
2022-08-17T04:55:10.872Z,52.55
2022-08-17T04:55:45.822Z,53.10
2022-08-17T04:56:20.864Z,53.53
2022-08-17T04:56:57.028Z,48.35
2022-08-17T04:57:39.502Z,45.45
2022-08-17T04:58:20.637Z,50.28
2022-08-17T04:58:57.622Z,47.63
2022-08-17T04:59:32.337Z,53.80
2022-08-17T05:00:08.089Z,45.85
2022-08-17T05:00:44.437Z,54.72
2022-08-17T05:01:23.809Z,53.50
2022-08-17T05:02:00.463Z,51.08
2022-08-17T05:02:35.175Z,48.65
2022-08-17T05:03:24.176Z,47.05
2022-08-17T05:04:01.894Z,48.00
2022-08-17T05:04:55.125Z,48.78
2022-08-17T05:05:33.671Z,51.65
2022-08-17T05:06:10.423Z,48.65
2022-08-17T05:06:46.007Z,49.10
2022-08-17T05:07:24.654Z,48.50
2022-08-17T05:08:00.990Z,52.20
2022-08-17T05:08:35.518Z,53.63
2022-08-17T05:09:10.905Z,47.47
2022-08-17T05:09:44.616Z,49.30
2022-08-17T05:10:19.162Z,43.90
2022-08-17T05:10:53.453Z,47.42
2022-08-17T05:11:28.974Z,42.35
2022-08-17T05:12:04.840Z,46.00
2022-08-17T05:12:39.235Z,49.58
2022-08-17T05:13:16.176Z,45.30
2022-08-17T05:13:51.416Z,48.63
2022-08-17T05:14:33.521Z,48.67
2022-08-17T05:15:12.501Z,48.30
2022-08-17T05:15:47.903Z,49.17
2022-08-17T05:16:24.385Z,57.67
2022-08-17T05:16:59.445Z,53.50
2022-08-17T05:17:35.447Z,48.22
2022-08-17T05:18:11.858Z,51.20
2022-08-17T05:18:46.138Z,52.05
2022-08-17T05:19:22.377Z,49.88
2022-08-17T05:19:56.018Z,50.05
2022-08-17T05:20:30.961Z,55.10
2022-08-17T05:21:07.393Z,47.40
2022-08-17T05:21:41.300Z,47.30
2022-08-17T05:22:15.963Z,51.28
2022-08-17T05:22:55.884Z,47.95
2022-08-17T05:23:41.956Z,50.03
2022-08-17T05:24:39.846Z,48.90
2022-08-17T05:25:12.415Z,48.95
2022-08-17T05:25:48.926Z,49.70
2022-08-17T05:26:27.354Z,50.90
2022-08-17T05:27:06.712Z,44.90
2022-08-17T05:27:41.327Z,46.72
2022-08-17T05:28:18.572Z,45.75
2022-08-17T05:28:59.691Z,55.53
2022-08-17T05:29:37.922Z,51.10
2022-08-17T05:30:14.530Z,51.97
2022-08-17T05:30:49.506Z,53.92
2022-08-17T05:31:25.356Z,42.85
2022-08-17T05:31:58.984Z,48.58
2022-08-17T05:32:38.702Z,50.05
2022-08-17T05:33:16.111Z,45.47
2022-08-17T05:33:51.821Z,48.22
2022-08-17T05:34:25.300Z,52.70
2022-08-17T05:35:01.305Z,42.00
2022-08-17T05:35:38.423Z,49.03
2022-08-17T05:36:41.708Z,50.75
2022-08-17T05:37:10.013Z,54.10
2022-08-17T05:37:44.726Z,51.63
2022-08-17T05:38:20.808Z,49.72
2022-08-17T05:38:56.730Z,44.58
2022-08-17T05:39:31.323Z,48.38
2022-08-17T05:40:08.264Z,45.67
2022-08-17T05:40:45.013Z,47.85
2022-08-17T05:41:19.503Z,44.72
2022-08-17T05:41:54.500Z,44.08
2022-08-17T05:42:30.060Z,48.25
2022-08-17T05:43:08.158Z,49.40
2022-08-17T05:43:45.721Z,45.28
2022-08-17T05:44:19.609Z,41.80
2022-08-17T05:44:54.638Z,45.88
2022-08-17T05:45:54.678Z,41.67
2022-08-17T05:46:25.625Z,48.95
2022-08-17T05:47:01.614Z,43.58
2022-08-17T05:47:35.035Z,42.40
2022-08-17T05:48:10.926Z,42.40
2022-08-17T05:48:47.154Z,41.45
2022-08-17T05:49:27.794Z,41.63
2022-08-17T05:50:03.150Z,50.72
2022-08-17T05:50:50.357Z,42.78
2022-08-17T05:51:52.240Z,44.45
2022-08-17T05:52:32.046Z,41.13
2022-08-17T05:53:08.569Z,48.67
2022-08-17T05:53:47.540Z,50.92
2022-08-17T05:54:30.068Z,47.83
2022-08-17T05:55:15.771Z,39.75
2022-08-17T05:55:54.389Z,39.75
2022-08-17T05:56:37.500Z,39.17
2022-08-17T05:57:27.387Z,50.85
2022-08-17T05:58:12.708Z,46.15
2022-08-17T05:58:51.386Z,110.28
2022-08-17T05:59:31.225Z,39.65
2022-08-17T06:00:08.214Z,101.47
2022-08-17T06:00:58.179Z,53.03
2022-08-17T06:01:36.958Z,39.30
2022-08-17T06:02:17.155Z,40.47
2022-08-17T06:03:21.463Z,39.65
2022-08-17T06:03:59.039Z,36.67
2022-08-17T06:04:37.836Z,38.13
2022-08-17T06:05:16.769Z,42.83
2022-08-17T06:05:55.448Z,37.17
2022-08-17T06:06:40.950Z,44.42
2022-08-17T06:07:19.929Z,39.22
2022-08-17T06:07:58.516Z,42.60
2022-08-17T06:08:35.249Z,50.47
2022-08-17T06:09:26.630Z,38.40
2022-08-17T06:10:04.360Z,35.75
2022-08-17T06:10:43.129Z,40.35
2022-08-17T06:11:24.781Z,38.88
2022-08-17T06:12:01.190Z,36.13
2022-08-17T06:12:43.057Z,38.47
2022-08-17T06:13:21.985Z,37.53
2022-08-17T06:14:04.472Z,40.90
2022-08-17T06:14:46.929Z,36.65
2022-08-17T06:15:26.079Z,41.50
2022-08-17T06:16:04.045Z,40.47
2022-08-17T06:16:41.812Z,37.08
2022-08-17T06:17:19.454Z,58.03
2022-08-17T06:17:54.880Z,34.63
2022-08-17T06:18:33.513Z,36.92
2022-08-17T06:19:11.437Z,33.60
2022-08-17T06:19:49.720Z,37.35
2022-08-17T06:20:24.182Z,36.53
2022-08-17T06:20:59.511Z,35.80
2022-08-17T06:21:36.571Z,40.67
2022-08-17T06:22:14.674Z,33.13
2022-08-17T06:22:50.433Z,32.10
2022-08-17T06:23:29.192Z,31.30
2022-08-17T06:24:05.945Z,35.92
2022-08-17T06:24:45.213Z,53.83
2022-08-17T06:25:20.788Z,37.17
2022-08-17T06:25:58.205Z,36.10
2022-08-17T06:26:39.596Z,37.58
2022-08-17T06:27:21.662Z,42.97
2022-08-17T06:27:57.958Z,33.97
2022-08-17T06:28:40.277Z,32.75
2022-08-17T06:29:19.092Z,32.95
2022-08-17T06:29:56.237Z,33.47
2022-08-17T06:30:41.396Z,36.28
2022-08-17T06:31:30.016Z,32.42
2022-08-17T06:32:06.050Z,30.65
2022-08-17T06:32:42.353Z,28.50
2022-08-17T06:33:22.063Z,29.35
2022-08-17T06:33:57.621Z,31.90
2022-08-17T06:34:34.629Z,28.67
2022-08-17T06:35:12.247Z,36.78
2022-08-17T06:35:51.905Z,33.38
2022-08-17T06:36:31.889Z,32.40
2022-08-17T06:37:11.339Z,36.85
2022-08-17T06:37:53.099Z,43.00
2022-08-17T06:38:37.151Z,30.85
2022-08-17T06:39:23.335Z,31.92
2022-08-17T06:40:02.489Z,39.45
2022-08-17T06:40:46.617Z,30.40
2022-08-17T06:41:26.877Z,30.42
2022-08-17T06:43:04.981Z,31.25
2022-08-17T06:43:19.175Z,31.27
2022-08-17T06:44:02.096Z,31.15
2022-08-17T06:44:50.226Z,31.48
2022-08-17T06:45:29.238Z,31.38
2022-08-17T06:46:04.758Z,25.80
2022-08-17T06:46:41.636Z,68.13
2022-08-17T06:47:28.839Z,30.02
2022-08-17T06:48:06.033Z,33.13
2022-08-17T06:48:44.018Z,28.55
2022-08-17T06:49:22.872Z,28.02
2022-08-17T06:50:03.032Z,25.92
2022-08-17T06:51:17.964Z,28.60
2022-08-17T06:51:53.793Z,33.90
2022-08-17T06:52:46.144Z,34.63
2022-08-17T06:53:24.139Z,31.00
2022-08-17T06:54:01.551Z,26.70
2022-08-17T06:54:39.701Z,26.65
2022-08-17T06:55:18.158Z,25.77
2022-08-17T06:55:57.781Z,26.50
2022-08-17T06:56:54.195Z,33.83
2022-08-17T06:57:30.229Z,29.58
2022-08-17T06:58:15.935Z,29.58
2022-08-17T06:58:50.926Z,28.63
2022-08-17T06:59:54.389Z,27.77
2022-08-17T07:00:25.083Z,31.48
2022-08-17T07:01:08.519Z,24.63
2022-08-17T07:01:44.205Z,27.05
2022-08-17T07:02:20.542Z,27.02
2022-08-17T07:03:09.325Z,30.33
2022-08-17T07:03:47.724Z,30.58
2022-08-17T07:04:25.364Z,26.20
2022-08-17T07:05:02.421Z,25.48
2022-08-17T07:05:39.946Z,29.95
2022-08-17T07:06:17.482Z,27.95
2022-08-17T07:06:54.553Z,33.05
2022-08-17T07:07:47.244Z,29.35
2022-08-17T07:08:29.663Z,29.55
2022-08-17T07:09:07.660Z,28.45
2022-08-17T07:09:41.962Z,23.35
2022-08-17T07:10:17.204Z,24.45
2022-08-17T07:10:56.278Z,24.10
2022-08-17T07:11:33.684Z,29.98
2022-08-17T07:12:15.720Z,28.75
2022-08-17T07:12:50.329Z,22.73
2022-08-17T07:13:26.905Z,25.33
2022-08-17T07:14:12.877Z,24.48
2022-08-17T07:14:54.654Z,26.60
2022-08-17T07:15:34.683Z,24.58
2022-08-17T07:16:15.364Z,27.00
2022-08-17T07:16:52.102Z,23.55
2022-08-17T07:17:46.600Z,27.02
2022-08-17T07:18:24.208Z,21.90
2022-08-17T07:19:00.194Z,28.27
2022-08-17T07:19:38.258Z,26.52
2022-08-17T07:20:15.371Z,22.15
2022-08-17T07:20:53.844Z,24.10
2022-08-17T07:21:38.760Z,23.38
2022-08-17T07:22:20.749Z,22.05
2022-08-17T07:22:59.884Z,26.77
2022-08-17T07:23:38.453Z,27.90
2022-08-17T07:24:29.530Z,21.48
2022-08-17T07:25:07.030Z,21.58
2022-08-17T07:25:41.420Z,26.50
2022-08-17T07:26:17.026Z,23.15
2022-08-17T07:27:03.573Z,23.60
2022-08-17T07:27:41.359Z,24.17
2022-08-17T07:28:18.096Z,18.40
2022-08-17T07:28:55.746Z,21.40
2022-08-17T07:29:34.946Z,19.20
2022-08-17T07:30:18.224Z,18.08
2022-08-17T07:30:55.623Z,17.50
2022-08-17T07:31:31.445Z,18.80
2022-08-17T07:32:07.051Z,17.85
2022-08-17T07:32:44.626Z,22.35
2022-08-17T07:33:26.401Z,19.85
2022-08-17T07:34:03.647Z,18.58
2022-08-17T07:35:00.403Z,23.30
2022-08-17T07:35:41.372Z,18.27
2022-08-17T07:36:29.879Z,19.70
2022-08-17T07:37:06.654Z,19.08
2022-08-17T07:37:41.615Z,23.45
2022-08-17T07:38:24.973Z,20.98
2022-08-17T07:39:01.169Z,24.02
2022-08-17T07:39:36.812Z,18.88
2022-08-17T07:40:31.928Z,19.40
2022-08-17T07:41:09.162Z,26.83
2022-08-17T07:41:57.622Z,15.75
2022-08-17T07:42:34.542Z,20.38
2022-08-17T07:43:21.904Z,21.25
2022-08-17T07:43:59.340Z,22.33
2022-08-17T07:44:52.266Z,17.92
2022-08-17T07:45:46.518Z,17.50
2022-08-17T07:46:42.237Z,15.57
2022-08-17T07:47:35.689Z,18.33
2022-08-17T07:48:22.269Z,16.77
2022-08-17T07:48:58.570Z,14.88
2022-08-17T07:49:35.653Z,19.33
2022-08-17T07:50:27.167Z,17.80
2022-08-17T07:51:02.357Z,13.80
2022-08-17T07:51:38.255Z,18.15
2022-08-17T07:52:47.660Z,18.60
2022-08-17T07:53:17.836Z,13.00
2022-08-17T07:53:52.885Z,15.75
2022-08-17T07:54:31.371Z,16.70
2022-08-17T07:55:26.304Z,19.02
2022-08-17T07:56:01.107Z,18.25
2022-08-17T07:56:46.072Z,17.23
2022-08-17T07:57:32.268Z,17.48
2022-08-17T07:58:06.637Z,24.85
2022-08-17T07:58:42.815Z,16.20
2022-08-17T07:59:23.585Z,17.30
2022-08-17T08:00:31.974Z,19.83
2022-08-17T08:01:11.650Z,17.05
2022-08-17T08:01:55.493Z,19.50
2022-08-17T08:02:39.219Z,14.57
2022-08-17T08:03:15.442Z,17.85
2022-08-17T08:03:50.504Z,13.90
2022-08-17T08:05:48.588Z,16.83
2022-08-17T08:06:23.084Z,12.43
2022-08-17T08:07:00.126Z,17.75
2022-08-17T08:07:36.848Z,13.38
2022-08-17T08:08:22.479Z,14.68
2022-08-17T08:09:01.159Z,15.98
2022-08-17T08:09:38.563Z,14.23
2022-08-17T08:10:14.894Z,15.82
2022-08-17T08:10:59.498Z,13.32
2022-08-17T08:11:35.308Z,14.35
2022-08-17T08:12:33.354Z,17.23
2022-08-17T08:13:14.568Z,16.40
2022-08-17T08:13:49.981Z,17.42
2022-08-17T08:14:28.382Z,14.23
2022-08-17T08:15:05.841Z,14.40
2022-08-17T08:15:44.940Z,13.45
2022-08-17T08:16:30.894Z,14.98
2022-08-17T08:17:06.124Z,10.98
2022-08-17T08:17:53.781Z,11.52
2022-08-17T08:18:53.243Z,12.82
2022-08-17T08:19:27.319Z,14.13
2022-08-17T08:20:51.358Z,12.65
2022-08-17T08:21:00.741Z,16.55
2022-08-17T08:21:43.887Z,11.57
2022-08-17T08:22:20.167Z,18.98
2022-08-17T08:23:02.803Z,12.00
2022-08-17T08:23:42.823Z,11.55
2022-08-17T08:24:32.563Z,12.65